Time;durP1;ratioP1;P1;durP2;ratioP2;P2;SDS_P1;SDS_P2;PMS_P1;PMS_P2;Temp;Humidity;BMP_temperature;BMP_pressure;BME280_temperature;BME280_humidity;BME280_pressure;Samples;Min_cycle;Max_cycle;Signal;HPM_P1;HPM_P2
2022/11/23 00:00:49;;;;;;;;;;;;;;;6.76;100;99501.45;;;;-76
2022/11/23 00:05:49;;;;;;;;;;;;;;;6.73;100;99498.8;;;;-77
2022/11/23 00:06:58;;;;;;;14.5;6.2;;;;;;;;;;;;;-76
2022/11/23 00:10:49;;;;;;;;;;;;;;;6.69;100;99504.2;;;;-76
2022/11/23 00:15:50;;;;;;;;;;;;;;;6.66;100;99505.42;;;;-75
2022/11/23 00:20:49;;;;;;;;;;;;;;;6.63;100;99507.59;;;;-76
2022/11/23 00:25:51;;;;;;;;;;;;;;;6.62;100;99512.58;;;;-76
2022/11/23 00:30:50;;;;;;;;;;;;;;;6.59;100;99518.4;;;;-75
2022/11/23 00:35:49;;;;;;;;;;;;;;;6.6;100;99524.13;;;;-76
2022/11/23 00:36:58;;;;;;;13.8;6.9;;;;;;;;;;;;;-76
2022/11/23 00:40:50;;;;;;;;;;;;;;;6.63;100;99533.18;;;;-75
2022/11/23 00:45:49;;;;;;;;;;;;;;;6.65;100;99539.83;;;;-75
2022/11/23 00:50:49;;;;;;;;;;;;;;;6.69;100;99549.3;;;;-76
2022/11/23 00:55:57;;;;;;;;;;;;;;;6.7;100;99553.33;;;;-76
2022/11/23 01:00:50;;;;;;;;;;;;;;;6.71;100;99553.23;;;;-76
2022/11/23 01:05:49;;;;;;;;;;;;;;;6.74;100;99550.66;;;;-75
2022/11/23 01:06:59;;;;;;;15.8;7.6;;;;;;;;;;;;;-75
2022/11/23 01:10:50;;;;;;;;;;;;;;;6.74;100;99550.09;;;;-76
2022/11/23 01:15:55;;;;;;;;;;;;;;;6.76;100;99549.89;;;;-76
2022/11/23 01:20:49;;;;;;;;;;;;;;;6.76;100;99550.72;;;;-76
2022/11/23 01:25:50;;;;;;;;;;;;;;;6.77;100;99552.05;;;;-76
2022/11/23 01:30:50;;;;;;;;;;;;;;;6.77;100;99549.7;;;;-76
2022/11/23 01:35:49;;;;;;;;;;;;;;;6.73;100;99545.7;;;;-75
2022/11/23 01:36:59;;;;;;;15.5;6.5;;;;;;;;;;;;;-76
2022/11/23 01:40:50;;;;;;;;;;;;;;;6.69;100;99553.79;;;;-76
2022/11/23 01:45:58;;;;;;;;;;;;;;;6.64;100;99561.77;;;;-75
2022/11/23 01:50:51;;;;;;;;;;;;;;;6.61;100;99563.66;;;;-76
2022/11/23 01:55:50;;;;;;;;;;;;;;;6.59;100;99570.15;;;;-75
2022/11/23 02:00:49;;;;;;;;;;;;;;;6.57;100;99573.14;;;;-76
2022/11/23 02:05:53;;;;;;;;;;;;;;;6.55;100;99569.3;;;;-76
2022/11/23 02:06:59;;;;;;;15.4;6.9;;;;;;;;;;;;;-75
2022/11/23 02:10:49;;;;;;;;;;;;;;;6.52;100;99569.22;;;;-77
2022/11/23 02:15:49;;;;;;;;;;;;;;;6.49;100;99579.09;;;;-75
2022/11/23 02:20:50;;;;;;;;;;;;;;;6.48;100;99579.39;;;;-76
2022/11/23 02:25:57;;;;;;;;;;;;;;;6.51;100;99580.98;;;;-77
2022/11/23 02:30:51;;;;;;;;;;;;;;;6.53;100;99577.31;;;;-76
2022/11/23 02:35:55;;;;;;;;;;;;;;;6.56;100;99585.14;;;;-77
2022/11/23 02:36:59;;;;;;;16.7;7.8;;;;;;;;;;;;;-76
2022/11/23 02:40:50;;;;;;;;;;;;;;;6.59;100;99586.16;;;;-76
2022/11/23 02:45:52;;;;;;;;;;;;;;;6.6;100;99589.56;;;;-75
2022/11/23 02:50:50;;;;;;;;;;;;;;;6.62;100;99586.21;;;;-76
2022/11/23 02:55:49;;;;;;;;;;;;;;;6.65;100;99591.06;;;;-76
2022/11/23 03:00:51;;;;;;;;;;;;;;;6.68;100;99579.51;;;;-76
2022/11/23 03:05:49;;;;;;;;;;;;;;;6.69;100;99584.03;;;;-77
2022/11/23 03:06:58;;;;;;;19.7;8.5;;;;;;;;;;;;;-75
2022/11/23 03:10:49;;;;;;;;;;;;;;;6.71;100;99587.86;;;;-77
2022/11/23 03:15:50;;;;;;;;;;;;;;;6.72;100;99594.06;;;;-76
2022/11/23 03:20:49;;;;;;;;;;;;;;;6.72;100;99596.03;;;;-76
2022/11/23 03:25:57;;;;;;;;;;;;;;;6.73;100;99596.58;;;;-76
2022/11/23 03:30:50;;;;;;;;;;;;;;;6.73;100;99605.17;;;;-76
2022/11/23 03:35:50;;;;;;;;;;;;;;;6.75;100;99608.84;;;;-75
2022/11/23 03:36:59;;;;;;;16.6;8;;;;;;;;;;;;;-76
2022/11/23 03:40:50;;;;;;;;;;;;;;;6.76;100;99603.36;;;;-76
2022/11/23 03:45:49;;;;;;;;;;;;;;;6.77;100;99605.76;;;;-76
2022/11/23 03:50:50;;;;;;;;;;;;;;;6.79;100;99605.42;;;;-76
2022/11/23 03:55:49;;;;;;;;;;;;;;;6.78;100;99601.36;;;;-75
2022/11/23 04:00:50;;;;;;;;;;;;;;;6.79;100;99598.8;;;;-76
2022/11/23 04:05:49;;;;;;;;;;;;;;;6.79;100;99595.84;;;;-76
2022/11/23 04:06:59;;;;;;;17.3;7.4;;;;;;;;;;;;;-76
2022/11/23 04:10:50;;;;;;;;;;;;;;;6.79;100;99601.91;;;;-77
2022/11/23 04:15:52;;;;;;;;;;;;;;;6.79;100;99604.47;;;;-76
2022/11/23 04:20:49;;;;;;;;;;;;;;;6.8;100;99604.96;;;;-76
2022/11/23 04:25:49;;;;;;;;;;;;;;;6.81;100;99609.84;;;;-76
2022/11/23 04:30:50;;;;;;;;;;;;;;;6.81;100;99609.91;;;;-77
2022/11/23 04:35:49;;;;;;;;;;;;;;;6.83;100;99613.32;;;;-76
2022/11/23 04:36:59;;;;;;;15.6;7.1;;;;;;;;;;;;;-77
2022/11/23 04:40:50;;;;;;;;;;;;;;;6.83;100;99613.19;;;;-76
2022/11/23 04:45:49;;;;;;;;;;;;;;;6.82;100;99615.55;;;;-77
2022/11/23 04:50:50;;;;;;;;;;;;;;;6.83;100;99612.66;;;;-77
2022/11/23 04:55:50;;;;;;;;;;;;;;;6.84;100;99610.33;;;;-77
2022/11/23 05:00:51;;;;;;;;;;;;;;;6.86;100;99608.03;;;;-75
2022/11/23 05:05:49;;;;;;;;;;;;;;;6.88;100;99601.2;;;;-76
2022/11/23 05:06:59;;;;;;;15.9;8;;;;;;;;;;;;;-76
2022/11/23 05:10:49;;;;;;;;;;;;;;;6.9;100;99595.84;;;;-77
2022/11/23 05:15:49;;;;;;;;;;;;;;;6.92;100;99596.3;;;;-76
2022/11/23 05:20:50;;;;;;;;;;;;;;;6.93;100;99588.22;;;;-76
2022/11/23 05:25:49;;;;;;;;;;;;;;;6.93;100;99586.65;;;;-77
2022/11/23 05:30:49;;;;;;;;;;;;;;;6.93;100;99590.69;;;;-77
2022/11/23 05:35:50;;;;;;;;;;;;;;;6.93;100;99602.1;;;;-77
2022/11/23 05:36:59;;;;;;;14.6;6.6;;;;;;;;;;;;;-76
2022/11/23 05:40:49;;;;;;;;;;;;;;;6.94;100;99608.83;;;;-76
2022/11/23 05:45:49;;;;;;;;;;;;;;;6.94;100;99616.44;;;;-76
2022/11/23 05:50:49;;;;;;;;;;;;;;;6.95;100;99619.36;;;;-76
2022/11/23 05:55:49;;;;;;;;;;;;;;;6.93;100;99619.66;;;;-76
2022/11/23 06:00:49;;;;;;;;;;;;;;;6.93;100;99620.31;;;;-76
2022/11/23 06:05:49;;;;;;;;;;;;;;;6.94;100;99624.38;;;;-76
2022/11/23 06:06:59;;;;;;;14.6;6.6;;;;;;;;;;;;;-76
2022/11/23 06:10:49;;;;;;;;;;;;;;;6.93;100;99627.41;;;;-76
2022/11/23 06:15:49;;;;;;;;;;;;;;;6.93;100;99627.66;;;;-74
2022/11/23 06:20:49;;;;;;;;;;;;;;;6.93;100;99629.3;;;;-76
2022/11/23 06:25:49;;;;;;;;;;;;;;;6.91;100;99630.23;;;;-76
2022/11/23 06:30:49;;;;;;;;;;;;;;;6.91;100;99627.02;;;;-76
2022/11/23 06:35:54;;;;;;;;;;;;;;;6.91;100;99626.42;;;;-75
2022/11/23 06:36:59;;;;;;;14.4;6.3;;;;;;;;;;;;;-77
2022/11/23 06:40:49;;;;;;;;;;;;;;;6.91;100;99625.93;;;;-76
2022/11/23 06:45:49;;;;;;;;;;;;;;;6.89;100;99626.95;;;;-76
2022/11/23 06:50:49;;;;;;;;;;;;;;;6.85;100;99630.57;;;;-76
2022/11/23 06:55:49;;;;;;;;;;;;;;;6.82;100;99641.31;;;;-77
2022/11/23 07:00:49;;;;;;;;;;;;;;;6.78;100;99648.3;;;;-76
2022/11/23 07:05:50;;;;;;;;;;;;;;;6.73;100;99655.95;;;;-75
2022/11/23 07:07:00;;;;;;;15.7;7;;;;;;;;;;;;;-76
2022/11/23 07:10:49;;;;;;;;;;;;;;;6.66;100;99661.55;;;;-76
2022/11/23 07:15:49;;;;;;;;;;;;;;;6.58;100;99657.81;;;;-77
2022/11/23 07:20:49;;;;;;;;;;;;;;;6.51;100;99666.14;;;;-76
2022/11/23 07:25:49;;;;;;;;;;;;;;;6.44;100;99679.3;;;;-76
2022/11/23 07:30:52;;;;;;;;;;;;;;;6.41;100;99681.59;;;;-78
2022/11/23 07:35:50;;;;;;;;;;;;;;;6.39;100;99688.48;;;;-76
2022/11/23 07:37:00;;;;;;;18.2;6.8;;;;;;;;;;;;;-77
2022/11/23 07:40:51;;;;;;;;;;;;;;;6.41;100;99699.3;;;;-76
2022/11/23 07:45:49;;;;;;;;;;;;;;;6.45;100;99703.56;;;;-76
2022/11/23 07:50:49;;;;;;;;;;;;;;;6.47;100;99706.74;;;;-76
2022/11/23 07:55:49;;;;;;;;;;;;;;;6.51;100;99716.09;;;;-76
2022/11/23 08:00:49;;;;;;;;;;;;;;;6.54;100;99719.3;;;;-75
2022/11/23 08:05:50;;;;;;;;;;;;;;;6.57;100;99722.36;;;;-77
2022/11/23 08:07:09;;;;;;;14.6;5.2;;;;;;;;;;;;;-75
2022/11/23 08:10:49;;;;;;;;;;;;;;;6.56;100;99716.05;;;;-76
2022/11/23 08:15:49;;;;;;;;;;;;;;;6.57;100;99715.77;;;;-76
2022/11/23 08:20:49;;;;;;;;;;;;;;;6.59;100;99721.08;;;;-76
2022/11/23 08:25:49;;;;;;;;;;;;;;;6.6;100;99729.23;;;;-76
2022/11/23 08:30:50;;;;;;;;;;;;;;;6.62;100;99718.88;;;;-76
2022/11/23 08:35:49;;;;;;;;;;;;;;;6.63;100;99712.09;;;;-76
2022/11/23 08:37:00;;;;;;;9.7;3.3;;;;;;;;;;;;;-76
2022/11/23 08:40:49;;;;;;;;;;;;;;;6.65;100;99719.47;;;;-76
2022/11/23 08:45:52;;;;;;;;;;;;;;;6.68;100;99715.47;;;;-75
2022/11/23 08:50:50;;;;;;;;;;;;;;;6.71;100;99713;;;;-76
2022/11/23 08:55:50;;;;;;;;;;;;;;;6.73;100;99721.86;;;;-77
2022/11/23 09:00:49;;;;;;;;;;;;;;;6.75;100;99712.5;;;;-76
2022/11/23 09:05:50;;;;;;;;;;;;;;;6.78;100;99712.67;;;;-76
2022/11/23 09:07:00;;;;;;;8.7;2.2;;;;;;;;;;;;;-77
2022/11/23 09:10:49;;;;;;;;;;;;;;;6.8;100;99709.72;;;;-76
2022/11/23 09:15:49;;;;;;;;;;;;;;;6.84;100;99714.66;;;;-76
2022/11/23 09:20:49;;;;;;;;;;;;;;;6.86;100;99702.66;;;;-75
2022/11/23 09:25:50;;;;;;;;;;;;;;;6.89;100;99691.2;;;;-76
2022/11/23 09:30:49;;;;;;;;;;;;;;;6.96;100;99691.34;;;;-75
2022/11/23 09:35:49;;;;;;;;;;;;;;;7.05;100;99678.63;;;;-78
2022/11/23 09:37:02;;;;;;;10.2;1.9;;;;;;;;;;;;;-76
2022/11/23 09:40:49;;;;;;;;;;;;;;;7.18;100;99673.02;;;;-76
2022/11/23 09:45:52;;;;;;;;;;;;;;;7.27;100;99665.1;;;;-76
2022/11/23 09:50:52;;;;;;;;;;;;;;;7.33;100;99665.27;;;;-75
2022/11/23 09:55:51;;;;;;;;;;;;;;;7.28;99.95215;99652.92;;;;-75
2022/11/23 10:00:51;;;;;;;;;;;;;;;7.3;99.92188;99659.73;;;;-76
2022/11/23 10:05:53;;;;;;;;;;;;;;;7.3;99.80371;99649.82;;;;-77
2022/11/23 10:07:05;;;;;;;10.6;1.7;;;;;;;;;;;;;-77
2022/11/23 10:10:54;;;;;;;;;;;;;;;7.32;99.90625;99636.84;;;;-75
2022/11/23 10:15:56;;;;;;;;;;;;;;;7.33;99.71191;99629.88;;;;-76
2022/11/23 10:20:58;;;;;;;;;;;;;;;7.37;99.79688;99629.56;;;;-75
2022/11/23 10:25:51;;;;;;;;;;;;;;;7.42;99.66699;99628.27;;;;-76
2022/11/23 10:30:52;;;;;;;;;;;;;;;7.48;99.51758;99629.25;;;;-76
2022/11/23 10:35:49;;;;;;;;;;;;;;;7.5;98.83203;99630.78;;;;-76
2022/11/23 10:37:01;;;;;;;10.1;2;;;;;;;;;;;;;-76
2022/11/23 10:40:56;;;;;;;;;;;;;;;7.54;98.66797;99633.39;;;;-76
2022/11/23 10:45:49;;;;;;;;;;;;;;;7.54;97.58594;99628.59;;;;-76
2022/11/23 10:50:50;;;;;;;;;;;;;;;7.58;96.97266;99628.44;;;;-75
2022/11/23 10:55:56;;;;;;;;;;;;;;;7.63;96.70898;99635.91;;;;-75
2022/11/23 11:00:49;;;;;;;;;;;;;;;7.66;95.93848;99639.34;;;;-75
2022/11/23 11:05:55;;;;;;;;;;;;;;;7.68;96.16309;99630.78;;;;-75
2022/11/23 11:07:12;;;;;;;9.6;1.8;;;;;;;;;;;;;-77
2022/11/23 11:10:50;;;;;;;;;;;;;;;7.68;96;99627.99;;;;-76
2022/11/23 11:15:54;;;;;;;;;;;;;;;7.66;95.7002;99629.31;;;;-75
2022/11/23 11:20:59;;;;;;;;;;;;;;;7.65;95.7832;99631.09;;;;-76
2022/11/23 11:25:51;;;;;;;;;;;;;;;7.62;95.5127;99632.23;;;;-76
2022/11/23 11:30:59;;;;;;;;;;;;;;;7.58;95.5293;99638.13;;;;-77
2022/11/23 11:35:51;;;;;;;;;;;;;;;7.55;95.27832;99642.98;;;;-75
2022/11/23 11:37:05;;;;;;;9.3;2.1;;;;;;;;;;;;;-75
2022/11/23 11:40:50;;;;;;;;;;;;;;;7.56;95.47949;99618.77;;;;-76
2022/11/23 11:45:53;;;;;;;;;;;;;;;7.57;95.15332;99610.68;;;;-75
2022/11/23 11:50:53;;;;;;;;;;;;;;;7.59;94.77637;99614.94;;;;-76
2022/11/23 11:55:54;;;;;;;;;;;;;;;7.64;94.64355;99595.03;;;;-75
2022/11/23 12:00:51;;;;;;;;;;;;;;;7.67;94.2666;99584.02;;;;-76
2022/11/23 12:05:51;;;;;;;;;;;;;;;7.71;94.01367;99568.67;;;;-76
2022/11/23 12:07:07;;;;;;;10.9;2.8;;;;;;;;;;;;;-75
2022/11/23 12:10:52;;;;;;;;;;;;;;;7.72;93.76367;99560.68;;;;-76
2022/11/23 12:15:50;;;;;;;;;;;;;;;7.76;93.00586;99564.59;;;;-76
2022/11/23 12:20:57;;;;;;;;;;;;;;;7.8;93.125;99565.06;;;;-76
2022/11/23 12:25:53;;;;;;;;;;;;;;;7.83;92.90039;99560.11;;;;-76
2022/11/23 12:30:54;;;;;;;;;;;;;;;7.84;92.94629;99550.7;;;;-76
2022/11/23 12:35:58;;;;;;;;;;;;;;;7.94;92.94629;99564.33;;;;-75
2022/11/23 12:37:14;;;;;;;8;2.5;;;;;;;;;;;;;-76
2022/11/23 12:40:58;;;;;;;;;;;;;;;7.96;92.32715;99556.06;;;;-76
2022/11/23 12:45:56;;;;;;;;;;;;;;;7.97;92.49121;99548.3;;;;-75
2022/11/23 12:50:55;;;;;;;;;;;;;;;7.91;92.19336;99543.45;;;;-76
2022/11/23 12:55:54;;;;;;;;;;;;;;;7.82;92.50391;99543.66;;;;-75
2022/11/23 13:00:51;;;;;;;;;;;;;;;7.74;92.65137;99541.65;;;;-75
2022/11/23 13:06:06;;;;;;;;;;;;;;;7.71;92.95215;99538.55;;;;-75
2022/11/23 13:07:16;;;;;;;7.5;1.6;;;;;;;;;;;;;-75
2022/11/23 13:10:55;;;;;;;;;;;;;;;7.71;93.23438;99536.31;;;;-75
2022/11/23 13:16:01;;;;;;;;;;;;;;;7.71;93.02832;99530.56;;;;-75
2022/11/23 13:21:01;;;;;;;;;;;;;;;7.76;93.09277;99535.75;;;;-74
2022/11/23 13:25:59;;;;;;;;;;;;;;;7.76;93.14941;99545.73;;;;-75
2022/11/23 13:30:59;;;;;;;;;;;;;;;7.77;92.93066;99537.72;;;;-74
2022/11/23 13:35:57;;;;;;;;;;;;;;;7.8;93.05664;99539.41;;;;-75
2022/11/23 13:37:06;;;;;;;4.2;1.3;;;;;;;;;;;;;-75
2022/11/23 13:40:50;;;;;;;;;;;;;;;7.8;92.90527;99546.43;;;;-75
2022/11/23 13:46:01;;;;;;;;;;;;;;;7.82;93.53418;99555.72;;;;-76
2022/11/23 13:51:02;;;;;;;;;;;;;;;7.8;94.46094;99544.13;;;;-76
2022/11/23 13:55:50;;;;;;;;;;;;;;;7.76;95.00879;99547.91;;;;-75
2022/11/23 14:00:55;;;;;;;;;;;;;;;7.72;95.60059;99552.44;;;;-76
2022/11/23 14:06:04;;;;;;;;;;;;;;;7.69;95.96875;99555.8;;;;-76
2022/11/23 14:07:05;;;;;;;5;1.4;;;;;;;;;;;;;-76
2022/11/23 14:10:52;;;;;;;;;;;;;;;7.67;96.53125;99556.81;;;;-77
2022/11/23 14:15:57;;;;;;;;;;;;;;;7.63;97.07031;99571.2;;;;-76
2022/11/23 14:20:54;;;;;;;;;;;;;;;7.6;97.43555;99576.7;;;;-77
2022/11/23 14:25:55;;;;;;;;;;;;;;;7.55;97.97168;99572.69;;;;-78
2022/11/23 14:30:55;;;;;;;;;;;;;;;7.54;98.45996;99577.26;;;;-76
2022/11/23 14:35:54;;;;;;;;;;;;;;;7.54;98.62402;99564.69;;;;-77
2022/11/23 14:37:07;;;;;;;3.8;1.3;;;;;;;;;;;;;-76
2022/11/23 14:40:56;;;;;;;;;;;;;;;7.5;99.30176;99537.52;;;;-76
2022/11/23 14:45:50;;;;;;;;;;;;;;;7.49;99.68359;99555.71;;;;-77
2022/11/23 14:50:56;;;;;;;;;;;;;;;7.48;99.72559;99543.47;;;;-75
2022/11/23 14:55:51;;;;;;;;;;;;;;;7.48;99.92188;99557.16;;;;-76
2022/11/23 15:00:50;;;;;;;;;;;;;;;7.45;100;99558.86;;;;-76
2022/11/23 15:05:51;;;;;;;;;;;;;;;7.45;100;99583.81;;;;-74
2022/11/23 15:07:04;;;;;;;5.7;1.2;;;;;;;;;;;;;-76
2022/11/23 15:10:52;;;;;;;;;;;;;;;7.42;100;99586.66;;;;-76
2022/11/23 15:15:51;;;;;;;;;;;;;;;7.39;100;99594.62;;;;-77
2022/11/23 15:20:50;;;;;;;;;;;;;;;7.38;100;99597.84;;;;-76
2022/11/23 15:25:58;;;;;;;;;;;;;;;7.37;100;99607.7;;;;-77
2022/11/23 15:30:50;;;;;;;;;;;;;;;7.34;100;99610.08;;;;-78
2022/11/23 15:35:50;;;;;;;;;;;;;;;7.34;100;99625.08;;;;-77
2022/11/23 15:37:06;;;;;;;5.2;1.5;;;;;;;;;;;;;-75
2022/11/23 15:40:51;;;;;;;;;;;;;;;7.33;100;99628.56;;;;-78
2022/11/23 15:46:04;;;;;;;;;;;;;;;7.33;100;99632.12;;;;-78
2022/11/23 15:50:55;;;;;;;;;;;;;;;7.33;100;99636.78;;;;-75
2022/11/23 15:55:53;;;;;;;;;;;;;;;7.32;100;99625.13;;;;-76
2022/11/23 16:00:54;;;;;;;;;;;;;;;7.31;100;99632.58;;;;-76
2022/11/23 16:06:00;;;;;;;;;;;;;;;7.3;100;99639.09;;;;-77
2022/11/23 16:07:10;;;;;;;4.2;1.3;;;;;;;;;;;;;-77
2022/11/23 16:10:59;;;;;;;;;;;;;;;7.31;100;99636.23;;;;-77
2022/11/23 16:15:49;;;;;;;;;;;;;;;7.32;100;99648.8;;;;-76
2022/11/23 16:20:50;;;;;;;;;;;;;;;7.31;100;99655.7;;;;-75
2022/11/23 16:25:56;;;;;;;;;;;;;;;7.32;100;99660.78;;;;-76
2022/11/23 16:30:50;;;;;;;;;;;;;;;7.33;100;99664.84;;;;-77
2022/11/23 16:35:50;;;;;;;;;;;;;;;7.35;100;99677.94;;;;-75
2022/11/23 16:37:04;;;;;;;5;2;;;;;;;;;;;;;-76
2022/11/23 16:40:51;;;;;;;;;;;;;;;7.34;100;99675.25;;;;-75
2022/11/23 16:45:51;;;;;;;;;;;;;;;7.35;100;99682.7;;;;-76
2022/11/23 16:50:49;;;;;;;;;;;;;;;7.35;100;99696.5;;;;-76
2022/11/23 16:55:50;;;;;;;;;;;;;;;7.35;100;99696.53;;;;-76
2022/11/23 17:00:49;;;;;;;;;;;;;;;7.36;100;99698.79;;;;-76
2022/11/23 17:05:49;;;;;;;;;;;;;;;7.38;100;99703.84;;;;-76
2022/11/23 17:07:03;;;;;;;5.8;3;;;;;;;;;;;;;-76
2022/11/23 17:10:49;;;;;;;;;;;;;;;7.38;100;99688.24;;;;-76
2022/11/23 17:15:49;;;;;;;;;;;;;;;7.4;100;99720.38;;;;-75
2022/11/23 17:20:49;;;;;;;;;;;;;;;7.4;100;99728.36;;;;-76
2022/11/23 17:25:49;;;;;;;;;;;;;;;7.39;100;99746.23;;;;-75
2022/11/23 17:30:49;;;;;;;;;;;;;;;7.38;100;99750.96;;;;-75
2022/11/23 17:35:49;;;;;;;;;;;;;;;7.34;100;99740.11;;;;-76
2022/11/23 17:37:03;;;;;;;8.9;4.6;;;;;;;;;;;;;-75
2022/11/23 17:40:49;;;;;;;;;;;;;;;7.33;100;99757.61;;;;-76
2022/11/23 17:45:51;;;;;;;;;;;;;;;7.29;100;99758.17;;;;-75
2022/11/23 17:50:49;;;;;;;;;;;;;;;7.27;100;99763.5;;;;-76
2022/11/23 17:55:49;;;;;;;;;;;;;;;7.24;100;99775.16;;;;-76
2022/11/23 18:00:49;;;;;;;;;;;;;;;7.2;100;99784.16;;;;-74
2022/11/23 18:05:51;;;;;;;;;;;;;;;7.16;100;99795.09;;;;-77
2022/11/23 18:07:03;;;;;;;10.1;4.9;;;;;;;;;;;;;-77
2022/11/23 18:10:50;;;;;;;;;;;;;;;7.13;100;99797.89;;;;-76
2022/11/23 18:15:50;;;;;;;;;;;;;;;7.13;100;99803.02;;;;-76
2022/11/23 18:20:50;;;;;;;;;;;;;;;7.1;100;99801.23;;;;-77
2022/11/23 18:25:50;;;;;;;;;;;;;;;7.08;100;99816.73;;;;-76
2022/11/23 18:30:49;;;;;;;;;;;;;;;7.06;100;99823.33;;;;-75
2022/11/23 18:35:50;;;;;;;;;;;;;;;7.02;100;99828.88;;;;-76
2022/11/23 18:37:03;;;;;;;11.4;5.5;;;;;;;;;;;;;-76
2022/11/23 18:40:51;;;;;;;;;;;;;;;7;100;99842.34;;;;-75
2022/11/23 18:45:50;;;;;;;;;;;;;;;6.98;100;99840.63;;;;-75
2022/11/23 18:50:50;;;;;;;;;;;;;;;6.96;100;99847.81;;;;-76
2022/11/23 18:55:49;;;;;;;;;;;;;;;6.93;100;99855.23;;;;-75
2022/11/23 19:00:49;;;;;;;;;;;;;;;6.92;100;99865.37;;;;-75
2022/11/23 19:05:49;;;;;;;;;;;;;;;6.9;100;99878.59;;;;-76
2022/11/23 19:07:03;;;;;;;13.6;5.2;;;;;;;;;;;;;-77
2022/11/23 19:10:49;;;;;;;;;;;;;;;6.86;100;99877.57;;;;-75
2022/11/23 19:15:50;;;;;;;;;;;;;;;6.82;100;99884.61;;;;-75
2022/11/23 19:20:52;;;;;;;;;;;;;;;6.8;100;99882.77;;;;-76
2022/11/23 19:25:49;;;;;;;;;;;;;;;6.77;100;99891.33;;;;-75
2022/11/23 19:30:49;;;;;;;;;;;;;;;6.74;100;99900.25;;;;-76
2022/11/23 19:35:49;;;;;;;;;;;;;;;6.7;100;99899.16;;;;-75
2022/11/23 19:37:04;;;;;;;11.2;4.6;;;;;;;;;;;;;-75
2022/11/23 19:40:56;;;;;;;;;;;;;;;6.67;100;99896.09;;;;-76
2022/11/23 19:45:55;;;;;;;;;;;;;;;6.68;100;99915.42;;;;-75
2022/11/23 19:50:56;;;;;;;;;;;;;;;6.65;100;99920.36;;;;-76
2022/11/23 19:55:49;;;;;;;;;;;;;;;6.63;100;99912.75;;;;-75
2022/11/23 20:00:50;;;;;;;;;;;;;;;6.63;100;99915.47;;;;-76
2022/11/23 20:06:00;;;;;;;;;;;;;;;6.59;100;99927.8;;;;-76
2022/11/23 20:07:04;;;;;;;11.8;4.1;;;;;;;;;;;;;-75
2022/11/23 20:10:49;;;;;;;;;;;;;;;6.56;100;99940.55;;;;-76
2022/11/23 20:15:49;;;;;;;;;;;;;;;6.57;100;99944.12;;;;-74
2022/11/23 20:20:50;;;;;;;;;;;;;;;6.56;100;99943.59;;;;-75
2022/11/23 20:25:49;;;;;;;;;;;;;;;6.52;100;99943.7;;;;-75
2022/11/23 20:30:49;;;;;;;;;;;;;;;6.55;100;99939.69;;;;-75
2022/11/23 20:35:49;;;;;;;;;;;;;;;6.55;100;99946.9;;;;-75
2022/11/23 20:37:05;;;;;;;8.2;3.6;;;;;;;;;;;;;-75
2022/11/23 20:40:49;;;;;;;;;;;;;;;6.5;100;99961.73;;;;-76
2022/11/23 20:45:49;;;;;;;;;;;;;;;6.52;100;99957.64;;;;-76
2022/11/23 20:50:49;;;;;;;;;;;;;;;6.51;100;99972.98;;;;-75
2022/11/23 20:55:51;;;;;;;;;;;;;;;6.52;100;99983.88;;;;-75
2022/11/23 21:00:50;;;;;;;;;;;;;;;6.53;100;100000.4;;;;-77
2022/11/23 21:05:50;;;;;;;;;;;;;;;6.55;100;99999.64;;;;-76
2022/11/23 21:07:04;;;;;;;14.4;4.1;;;;;;;;;;;;;-76
2022/11/23 21:15:50;;;;;;;;;;;;;;;6.65;100;100000.3;;;;-75
2022/11/23 21:20:50;;;;;;;;;;;;;;;6.63;100;100003;;;;-76
2022/11/23 21:25:50;;;;;;;;;;;;;;;6.61;100;100008.5;;;;-75
2022/11/23 21:30:50;;;;;;;;;;;;;;;6.58;100;100013.9;;;;-76
2022/11/23 21:35:51;;;;;;;;;;;;;;;6.51;100;100022.7;;;;-75
2022/11/23 21:37:04;;;;;;;15.3;3.6;;;;;;;;;;;;;-76
2022/11/23 21:40:49;;;;;;;;;;;;;;;6.49;100;100039.4;;;;-75
2022/11/23 21:45:51;;;;;;;;;;;;;;;6.45;100;100038.4;;;;-74
2022/11/23 21:50:49;;;;;;;;;;;;;;;6.44;100;100045.1;;;;-76
2022/11/23 21:55:50;;;;;;;;;;;;;;;6.41;100;100057.6;;;;-76
2022/11/23 22:00:50;;;;;;;;;;;;;;;6.38;100;100067.9;;;;-75
2022/11/23 22:05:57;;;;;;;;;;;;;;;6.35;100;100071.5;;;;-75
2022/11/23 22:07:06;;;;;;;12.5;3.2;;;;;;;;;;;;;-75
2022/11/23 22:10:50;;;;;;;;;;;;;;;6.35;100;100076.9;;;;-74
2022/11/23 22:15:50;;;;;;;;;;;;;;;6.32;100;100081.5;;;;-75
2022/11/23 22:20:49;;;;;;;;;;;;;;;6.29;100;100089.3;;;;-75
2022/11/23 22:25:49;;;;;;;;;;;;;;;6.3;100;100082.3;;;;-76
2022/11/23 22:30:54;;;;;;;;;;;;;;;6.3;100;100094.5;;;;-75
2022/11/23 22:35:50;;;;;;;;;;;;;;;6.31;100;100103.5;;;;-75
2022/11/23 22:37:05;;;;;;;15.9;3.2;;;;;;;;;;;;;-75
2022/11/23 22:40:51;;;;;;;;;;;;;;;6.33;100;100107.5;;;;-75
2022/11/23 22:45:49;;;;;;;;;;;;;;;6.32;100;100108.2;;;;-76
2022/11/23 22:50:56;;;;;;;;;;;;;;;6.32;100;100098.4;;;;-76
2022/11/23 22:55:50;;;;;;;;;;;;;;;6.33;100;100115.7;;;;-76
2022/11/23 23:00:50;;;;;;;;;;;;;;;6.34;100;100118.5;;;;-75
2022/11/23 23:05:56;;;;;;;;;;;;;;;6.32;100;100117;;;;-76
2022/11/23 23:07:05;;;;;;;14.2;3.3;;;;;;;;;;;;;-76
2022/11/23 23:10:49;;;;;;;;;;;;;;;6.35;100;100134.6;;;;-76
2022/11/23 23:15:49;;;;;;;;;;;;;;;6.37;100;100149;;;;-75
2022/11/23 23:20:49;;;;;;;;;;;;;;;6.4;100;100144.4;;;;-76
2022/11/23 23:25:49;;;;;;;;;;;;;;;6.48;100;100147.9;;;;-76
2022/11/23 23:30:49;;;;;;;;;;;;;;;6.59;100;100146.5;;;;-76
2022/11/23 23:35:49;;;;;;;;;;;;;;;6.64;100;100148.1;;;;-76
2022/11/23 23:37:05;;;;;;;16.9;2.9;;;;;;;;;;;;;-76
2022/11/23 23:40:49;;;;;;;;;;;;;;;6.67;100;100142.3;;;;-76
2022/11/23 23:45:49;;;;;;;;;;;;;;;6.66;100;100146.3;;;;-76
2022/11/23 23:50:49;;;;;;;;;;;;;;;6.68;100;100136.2;;;;-75
2022/11/23 23:55:57;;;;;;;;;;;;;;;6.66;100;100137.3;;;;-76
